Hua Hin, Thailand
Current Conditions -  °F | °C
As of 10:00 AM on Thursday 23 Oct 2014 (Local Time) from VTBU Reporting Station
Haze Haze  
Wind Chill: 28°   Ceiling: 12000
Heat Index: 32°   Visibility: 2.5mi
Dew Point: 24°   Wind: 3mph
Humidity: 79%   Direction: 90°E
Pressure: 29.91"   Gusts: NA
Location:  12.57°N, 99.95°E
Report Text: VTBU 230300Z 09003KT 4000 BR FEW020CB SCT040 BKN120 28/24 Q1013 A2994 CB SE-S
Loading
Personal Weather Stations






























Interactive Weather Map
Tropical Storm Tracking
New forecast layout! Learn more

10-Day Weather Forecast

Advertisements
Track Severe Weather on mobile